sensor_id;sensor_type;location;lat;lon;timestamp;temperature;humidity
5011;DHT22;2524;54.364;10.072;2023-01-15T00:01:33;6.90;99.90
5011;DHT22;2524;54.364;10.072;2023-01-15T00:03:59;6.90;99.90
5011;DHT22;2524;54.364;10.072;2023-01-15T00:06:26;6.90;99.90
5011;DHT22;2524;54.364;10.072;2023-01-15T00:08:52;6.90;99.90
5011;DHT22;2524;54.364;10.072;2023-01-15T00:11:19;6.90;99.90
5011;DHT22;2524;54.364;10.072;2023-01-15T00:13:45;6.80;99.90
5011;DHT22;2524;54.364;10.072;2023-01-15T00:16:22;6.80;99.90
5011;DHT22;2524;54.364;10.072;2023-01-15T00:18:50;6.80;99.90
5011;DHT22;2524;54.364;10.072;2023-01-15T00:21:16;6.90;99.90
5011;DHT22;2524;54.364;10.072;2023-01-15T00:23:42;6.90;99.90
5011;DHT22;2524;54.364;10.072;2023-01-15T00:26:29;6.90;99.90
5011;DHT22;2524;54.364;10.072;2023-01-15T00:29:14;6.80;99.90
5011;DHT22;2524;54.364;10.072;2023-01-15T00:31:40;6.80;99.90
5011;DHT22;2524;54.364;10.072;2023-01-15T00:34:06;6.80;99.90
5011;DHT22;2524;54.364;10.072;2023-01-15T00:36:31;6.90;99.90
5011;DHT22;2524;54.364;10.072;2023-01-15T00:38:59;7.00;99.90
5011;DHT22;2524;54.364;10.072;2023-01-15T00:41:25;6.80;99.90
5011;DHT22;2524;54.364;10.072;2023-01-15T00:43:51;6.90;99.90
5011;DHT22;2524;54.364;10.072;2023-01-15T00:46:17;6.80;99.90
5011;DHT22;2524;54.364;10.072;2023-01-15T00:48:43;6.90;99.90
5011;DHT22;2524;54.364;10.072;2023-01-15T00:51:09;6.80;99.90
5011;DHT22;2524;54.364;10.072;2023-01-15T00:53:34;6.80;99.90
5011;DHT22;2524;54.364;10.072;2023-01-15T00:56:00;6.80;99.90
5011;DHT22;2524;54.364;10.072;2023-01-15T00:58:25;6.80;99.90
5011;DHT22;2524;54.364;10.072;2023-01-15T01:00:58;6.80;99.90
5011;DHT22;2524;54.364;10.072;2023-01-15T01:03:27;6.80;99.90
5011;DHT22;2524;54.364;10.072;2023-01-15T01:05:53;6.80;99.90
5011;DHT22;2524;54.364;10.072;2023-01-15T01:08:21;6.80;99.90
5011;DHT22;2524;54.364;10.072;2023-01-15T01:10:46;6.90;99.90
5011;DHT22;2524;54.364;10.072;2023-01-15T01:13:12;6.90;99.90
5011;DHT22;2524;54.364;10.072;2023-01-15T01:15:38;6.80;99.90
5011;DHT22;2524;54.364;10.072;2023-01-15T01:18:04;6.80;99.90
5011;DHT22;2524;54.364;10.072;2023-01-15T01:20:30;6.80;99.90
5011;DHT22;2524;54.364;10.072;2023-01-15T01:22:56;6.80;99.90
5011;DHT22;2524;54.364;10.072;2023-01-15T01:25:21;6.90;99.90
5011;DHT22;2524;54.364;10.072;2023-01-15T01:27:47;6.90;99.90
5011;DHT22;2524;54.364;10.072;2023-01-15T01:30:13;6.80;99.90
5011;DHT22;2524;54.364;10.072;2023-01-15T01:32:39;6.80;99.90
5011;DHT22;2524;54.364;10.072;2023-01-15T01:35:08;6.80;99.90
5011;DHT22;2524;54.364;10.072;2023-01-15T01:37:34;6.80;99.90
5011;DHT22;2524;54.364;10.072;2023-01-15T01:40:01;6.80;99.90
5011;DHT22;2524;54.364;10.072;2023-01-15T01:42:26;6.70;99.90
5011;DHT22;2524;54.364;10.072;2023-01-15T01:45:05;6.70;99.90
5011;DHT22;2524;54.364;10.072;2023-01-15T01:47:32;6.70;99.90
5011;DHT22;2524;54.364;10.072;2023-01-15T01:50:02;6.70;99.90
5011;DHT22;2524;54.364;10.072;2023-01-15T01:52:47;6.70;99.90
5011;DHT22;2524;54.364;10.072;2023-01-15T01:55:16;6.70;99.90
5011;DHT22;2524;54.364;10.072;2023-01-15T01:57:42;6.70;99.90
5011;DHT22;2524;54.364;10.072;2023-01-15T02:00:10;6.70;99.90
5011;DHT22;2524;54.364;10.072;2023-01-15T02:02:37;6.70;99.90
5011;DHT22;2524;54.364;10.072;2023-01-15T02:05:04;6.70;99.90
5011;DHT22;2524;54.364;10.072;2023-01-15T02:07:30;6.70;99.90
5011;DHT22;2524;54.364;10.072;2023-01-15T02:09:58;6.70;99.90
5011;DHT22;2524;54.364;10.072;2023-01-15T02:12:45;6.80;99.90
5011;DHT22;2524;54.364;10.072;2023-01-15T02:15:18;6.70;99.90
5011;DHT22;2524;54.364;10.072;2023-01-15T02:17:52;6.70;99.90
5011;DHT22;2524;54.364;10.072;2023-01-15T02:26:25;6.70;99.90
5011;DHT22;2524;54.364;10.072;2023-01-15T02:28:56;6.80;99.90
5011;DHT22;2524;54.364;10.072;2023-01-15T02:31:28;6.80;99.90
5011;DHT22;2524;54.364;10.072;2023-01-15T02:33:56;6.80;99.90
5011;DHT22;2524;54.364;10.072;2023-01-15T02:36:23;6.70;99.90
5011;DHT22;2524;54.364;10.072;2023-01-15T02:38:53;6.70;99.90
5011;DHT22;2524;54.364;10.072;2023-01-15T02:41:23;6.80;99.90
5011;DHT22;2524;54.364;10.072;2023-01-15T02:43:53;6.70;99.90
5011;DHT22;2524;54.364;10.072;2023-01-15T02:46:22;6.70;99.90
5011;DHT22;2524;54.364;10.072;2023-01-15T02:48:52;6.80;99.90
5011;DHT22;2524;54.364;10.072;2023-01-15T02:51:22;6.70;99.90
5011;DHT22;2524;54.364;10.072;2023-01-15T02:53:52;6.80;99.90
5011;DHT22;2524;54.364;10.072;2023-01-15T02:56:22;6.70;99.90
5011;DHT22;2524;54.364;10.072;2023-01-15T02:58:52;6.90;99.90
5011;DHT22;2524;54.364;10.072;2023-01-15T03:01:30;6.80;99.90
5011;DHT22;2524;54.364;10.072;2023-01-15T03:04:06;6.80;99.90
5011;DHT22;2524;54.364;10.072;2023-01-15T03:06:40;6.80;99.90
5011;DHT22;2524;54.364;10.072;2023-01-15T03:09:06;6.80;99.90
5011;DHT22;2524;54.364;10.072;2023-01-15T03:11:41;6.80;99.90
5011;DHT22;2524;54.364;10.072;2023-01-15T03:14:22;6.80;99.90
5011;DHT22;2524;54.364;10.072;2023-01-15T03:16:56;6.70;99.90
5011;DHT22;2524;54.364;10.072;2023-01-15T03:19:52;6.80;99.90
5011;DHT22;2524;54.364;10.072;2023-01-15T03:22:27;6.80;99.90
5011;DHT22;2524;54.364;10.072;2023-01-15T03:24:59;6.90;99.90
5011;DHT22;2524;54.364;10.072;2023-01-15T03:27:27;6.80;99.90
5011;DHT22;2524;54.364;10.072;2023-01-15T03:29:59;6.90;99.90
5011;DHT22;2524;54.364;10.072;2023-01-15T03:32:26;6.70;99.90
5011;DHT22;2524;54.364;10.072;2023-01-15T03:34:54;6.70;99.90
5011;DHT22;2524;54.364;10.072;2023-01-15T03:37:22;6.70;99.90
5011;DHT22;2524;54.364;10.072;2023-01-15T03:39:49;6.70;99.90
5011;DHT22;2524;54.364;10.072;2023-01-15T03:45:17;6.80;99.90
5011;DHT22;2524;54.364;10.072;2023-01-15T03:48:09;6.80;99.90
5011;DHT22;2524;54.364;10.072;2023-01-15T03:50:54;6.90;99.90
5011;DHT22;2524;54.364;10.072;2023-01-15T03:53:41;6.90;99.90
5011;DHT22;2524;54.364;10.072;2023-01-15T03:56:17;6.70;99.90
5011;DHT22;2524;54.364;10.072;2023-01-15T03:59:17;6.70;99.90
5011;DHT22;2524;54.364;10.072;2023-01-15T04:01:47;6.70;99.90
5011;DHT22;2524;54.364;10.072;2023-01-15T04:04:14;6.70;99.90
5011;DHT22;2524;54.364;10.072;2023-01-15T04:06:41;6.70;99.90
5011;DHT22;2524;54.364;10.072;2023-01-15T04:09:10;6.70;99.90
5011;DHT22;2524;54.364;10.072;2023-01-15T04:11:36;6.70;99.90
5011;DHT22;2524;54.364;10.072;2023-01-15T04:14:02;6.70;99.90
5011;DHT22;2524;54.364;10.072;2023-01-15T04:16:29;6.70;99.90
5011;DHT22;2524;54.364;10.072;2023-01-15T04:18:55;6.70;99.90
5011;DHT22;2524;54.364;10.072;2023-01-15T04:21:21;6.80;99.90
5011;DHT22;2524;54.364;10.072;2023-01-15T04:23:47;6.70;99.90
5011;DHT22;2524;54.364;10.072;2023-01-15T04:26:13;6.70;99.90
5011;DHT22;2524;54.364;10.072;2023-01-15T04:28:40;6.60;99.90
5011;DHT22;2524;54.364;10.072;2023-01-15T04:31:06;6.60;99.90
5011;DHT22;2524;54.364;10.072;2023-01-15T04:33:32;6.60;99.90
5011;DHT22;2524;54.364;10.072;2023-01-15T04:35:59;6.60;99.90
5011;DHT22;2524;54.364;10.072;2023-01-15T04:38:25;6.60;99.90
5011;DHT22;2524;54.364;10.072;2023-01-15T04:40:51;6.70;99.90
5011;DHT22;2524;54.364;10.072;2023-01-15T04:43:35;6.70;99.90
5011;DHT22;2524;54.364;10.072;2023-01-15T04:46:23;6.70;99.90
5011;DHT22;2524;54.364;10.072;2023-01-15T04:48:49;6.70;99.90
5011;DHT22;2524;54.364;10.072;2023-01-15T04:51:15;6.60;99.90
5011;DHT22;2524;54.364;10.072;2023-01-15T04:53:40;6.60;99.90
5011;DHT22;2524;54.364;10.072;2023-01-15T04:56:06;6.60;99.90
5011;DHT22;2524;54.364;10.072;2023-01-15T04:58:33;6.70;99.90
5011;DHT22;2524;54.364;10.072;2023-01-15T05:00:59;6.70;99.90
5011;DHT22;2524;54.364;10.072;2023-01-15T05:03:28;6.60;99.90
5011;DHT22;2524;54.364;10.072;2023-01-15T05:05:54;6.60;99.90
5011;DHT22;2524;54.364;10.072;2023-01-15T05:08:20;6.60;99.90
5011;DHT22;2524;54.364;10.072;2023-01-15T05:10:45;6.60;99.90
5011;DHT22;2524;54.364;10.072;2023-01-15T05:13:11;6.60;99.90
5011;DHT22;2524;54.364;10.072;2023-01-15T05:15:37;6.70;99.90
5011;DHT22;2524;54.364;10.072;2023-01-15T05:18:05;6.50;99.90
5011;DHT22;2524;54.364;10.072;2023-01-15T05:20:30;6.60;99.90
5011;DHT22;2524;54.364;10.072;2023-01-15T05:22:56;6.60;99.90
5011;DHT22;2524;54.364;10.072;2023-01-15T05:25:22;6.50;99.90
5011;DHT22;2524;54.364;10.072;2023-01-15T05:27:48;6.60;99.90
5011;DHT22;2524;54.364;10.072;2023-01-15T05:30:13;6.50;99.90
5011;DHT22;2524;54.364;10.072;2023-01-15T05:32:39;6.50;99.90
5011;DHT22;2524;54.364;10.072;2023-01-15T05:35:05;6.60;99.90
5011;DHT22;2524;54.364;10.072;2023-01-15T05:37:30;6.60;99.90
5011;DHT22;2524;54.364;10.072;2023-01-15T05:39:56;6.70;99.90
5011;DHT22;2524;54.364;10.072;2023-01-15T05:42:22;6.60;99.90
5011;DHT22;2524;54.364;10.072;2023-01-15T05:44:47;6.60;99.90
5011;DHT22;2524;54.364;10.072;2023-01-15T05:47:13;6.60;99.90
5011;DHT22;2524;54.364;10.072;2023-01-15T05:49:39;6.60;99.90
5011;DHT22;2524;54.364;10.072;2023-01-15T05:52:04;6.50;99.90
5011;DHT22;2524;54.364;10.072;2023-01-15T05:54:34;6.50;99.90
5011;DHT22;2524;54.364;10.072;2023-01-15T05:57:00;6.50;99.90
5011;DHT22;2524;54.364;10.072;2023-01-15T05:59:27;6.60;99.90
5011;DHT22;2524;54.364;10.072;2023-01-15T06:01:54;6.50;99.90
5011;DHT22;2524;54.364;10.072;2023-01-15T06:04:20;6.50;99.90
5011;DHT22;2524;54.364;10.072;2023-01-15T06:06:47;6.60;99.90
5011;DHT22;2524;54.364;10.072;2023-01-15T06:09:13;6.50;99.90
5011;DHT22;2524;54.364;10.072;2023-01-15T06:11:39;6.60;99.90
5011;DHT22;2524;54.364;10.072;2023-01-15T06:14:05;6.60;99.90
5011;DHT22;2524;54.364;10.072;2023-01-15T06:16:31;6.50;99.90
5011;DHT22;2524;54.364;10.072;2023-01-15T06:19:04;6.60;99.90
5011;DHT22;2524;54.364;10.072;2023-01-15T06:21:31;6.60;99.90
5011;DHT22;2524;54.364;10.072;2023-01-15T06:23:57;6.60;99.90
5011;DHT22;2524;54.364;10.072;2023-01-15T06:26:23;6.70;99.90
5011;DHT22;2524;54.364;10.072;2023-01-15T06:28:49;6.60;99.90
5011;DHT22;2524;54.364;10.072;2023-01-15T06:31:16;6.50;99.90
5011;DHT22;2524;54.364;10.072;2023-01-15T06:33:43;6.60;99.90
5011;DHT22;2524;54.364;10.072;2023-01-15T06:36:11;6.70;99.90
5011;DHT22;2524;54.364;10.072;2023-01-15T06:38:37;6.70;99.90
5011;DHT22;2524;54.364;10.072;2023-01-15T06:41:04;6.60;99.90
5011;DHT22;2524;54.364;10.072;2023-01-15T06:43:50;6.60;99.90
5011;DHT22;2524;54.364;10.072;2023-01-15T06:46:34;6.70;99.90
5011;DHT22;2524;54.364;10.072;2023-01-15T06:49:18;6.60;99.90
5011;DHT22;2524;54.364;10.072;2023-01-15T06:51:44;6.60;99.90
5011;DHT22;2524;54.364;10.072;2023-01-15T06:54:09;6.60;99.90
5011;DHT22;2524;54.364;10.072;2023-01-15T06:56:35;6.60;99.90
5011;DHT22;2524;54.364;10.072;2023-01-15T06:59:00;6.50;99.90
5011;DHT22;2524;54.364;10.072;2023-01-15T07:01:26;6.70;99.90
5011;DHT22;2524;54.364;10.072;2023-01-15T07:03:55;6.50;99.90
5011;DHT22;2524;54.364;10.072;2023-01-15T07:06:21;6.60;99.90
5011;DHT22;2524;54.364;10.072;2023-01-15T07:08:47;6.60;99.90
5011;DHT22;2524;54.364;10.072;2023-01-15T07:11:13;6.60;99.90
5011;DHT22;2524;54.364;10.072;2023-01-15T07:13:38;6.60;99.90
5011;DHT22;2524;54.364;10.072;2023-01-15T07:16:06;6.60;99.90
5011;DHT22;2524;54.364;10.072;2023-01-15T07:18:51;6.60;99.90
5011;DHT22;2524;54.364;10.072;2023-01-15T07:21:17;6.70;99.90
5011;DHT22;2524;54.364;10.072;2023-01-15T07:23:42;6.70;99.90
5011;DHT22;2524;54.364;10.072;2023-01-15T07:26:08;6.60;99.90
5011;DHT22;2524;54.364;10.072;2023-01-15T07:28:34;6.60;99.90
5011;DHT22;2524;54.364;10.072;2023-01-15T07:30:59;6.70;99.90
5011;DHT22;2524;54.364;10.072;2023-01-15T07:33:25;6.70;99.90
5011;DHT22;2524;54.364;10.072;2023-01-15T07:35:50;6.60;99.90
5011;DHT22;2524;54.364;10.072;2023-01-15T07:38:16;6.60;99.90
5011;DHT22;2524;54.364;10.072;2023-01-15T07:40:42;6.70;99.90
5011;DHT22;2524;54.364;10.072;2023-01-15T07:43:09;6.70;99.90
5011;DHT22;2524;54.364;10.072;2023-01-15T07:45:53;6.60;99.90
5011;DHT22;2524;54.364;10.072;2023-01-15T07:48:37;6.60;99.90
5011;DHT22;2524;54.364;10.072;2023-01-15T07:51:21;6.60;99.90
5011;DHT22;2524;54.364;10.072;2023-01-15T07:53:47;6.70;99.90
5011;DHT22;2524;54.364;10.072;2023-01-15T07:56:13;6.60;99.90
5011;DHT22;2524;54.364;10.072;2023-01-15T07:58:38;6.50;99.90
5011;DHT22;2524;54.364;10.072;2023-01-15T08:01:04;6.60;99.90
5011;DHT22;2524;54.364;10.072;2023-01-15T08:03:30;6.50;99.90
5011;DHT22;2524;54.364;10.072;2023-01-15T08:05:55;6.60;99.90
5011;DHT22;2524;54.364;10.072;2023-01-15T08:08:21;6.60;99.90
5011;DHT22;2524;54.364;10.072;2023-01-15T08:10:47;6.60;99.90
5011;DHT22;2524;54.364;10.072;2023-01-15T08:13:31;6.60;99.90
5011;DHT22;2524;54.364;10.072;2023-01-15T08:16:15;6.50;99.90
5011;DHT22;2524;54.364;10.072;2023-01-15T08:18:41;6.60;99.90
5011;DHT22;2524;54.364;10.072;2023-01-15T08:21:12;6.60;99.90
5011;DHT22;2524;54.364;10.072;2023-01-15T08:23:39;6.60;99.90
5011;DHT22;2524;54.364;10.072;2023-01-15T08:26:07;6.70;99.90
5011;DHT22;2524;54.364;10.072;2023-01-15T08:28:33;6.60;99.90
5011;DHT22;2524;54.364;10.072;2023-01-15T08:30:58;6.70;99.90
5011;DHT22;2524;54.364;10.072;2023-01-15T08:33:27;6.70;99.90
5011;DHT22;2524;54.364;10.072;2023-01-15T08:35:52;6.60;99.90
5011;DHT22;2524;54.364;10.072;2023-01-15T08:38:21;6.60;99.90
5011;DHT22;2524;54.364;10.072;2023-01-15T08:40:52;6.60;99.90
5011;DHT22;2524;54.364;10.072;2023-01-15T08:43:27;6.70;99.90
5011;DHT22;2524;54.364;10.072;2023-01-15T08:45:58;6.70;99.90
5011;DHT22;2524;54.364;10.072;2023-01-15T08:48:25;6.70;99.90
5011;DHT22;2524;54.364;10.072;2023-01-15T08:50:51;6.70;99.90
5011;DHT22;2524;54.364;10.072;2023-01-15T08:53:17;6.60;99.90
5011;DHT22;2524;54.364;10.072;2023-01-15T08:55:47;6.70;99.90
5011;DHT22;2524;54.364;10.072;2023-01-15T08:58:13;6.70;99.90
5011;DHT22;2524;54.364;10.072;2023-01-15T09:00:40;6.70;99.90
5011;DHT22;2524;54.364;10.072;2023-01-15T09:03:06;6.70;99.90
5011;DHT22;2524;54.364;10.072;2023-01-15T09:05:32;6.70;99.90
5011;DHT22;2524;54.364;10.072;2023-01-15T09:07:57;6.80;99.90
5011;DHT22;2524;54.364;10.072;2023-01-15T09:10:23;6.70;99.90
5011;DHT22;2524;54.364;10.072;2023-01-15T09:12:52;6.70;99.90
5011;DHT22;2524;54.364;10.072;2023-01-15T09:15:18;6.70;99.90
5011;DHT22;2524;54.364;10.072;2023-01-15T09:17:43;6.70;99.90
5011;DHT22;2524;54.364;10.072;2023-01-15T09:20:11;6.70;99.90
5011;DHT22;2524;54.364;10.072;2023-01-15T09:22:37;6.70;99.90
5011;DHT22;2524;54.364;10.072;2023-01-15T09:25:03;6.70;99.90
5011;DHT22;2524;54.364;10.072;2023-01-15T09:27:29;6.70;99.90
5011;DHT22;2524;54.364;10.072;2023-01-15T09:29:55;6.70;99.90
5011;DHT22;2524;54.364;10.072;2023-01-15T09:32:21;6.80;99.90
5011;DHT22;2524;54.364;10.072;2023-01-15T09:34:47;6.80;99.90
5011;DHT22;2524;54.364;10.072;2023-01-15T09:37:12;6.70;99.90
5011;DHT22;2524;54.364;10.072;2023-01-15T09:39:38;6.80;99.90
5011;DHT22;2524;54.364;10.072;2023-01-15T09:47:19;6.70;99.90
5011;DHT22;2524;54.364;10.072;2023-01-15T09:55:12;6.70;99.90
5011;DHT22;2524;54.364;10.072;2023-01-15T09:57:40;6.70;99.90
5011;DHT22;2524;54.364;10.072;2023-01-15T10:00:15;6.70;99.90
5011;DHT22;2524;54.364;10.072;2023-01-15T10:08:39;6.80;99.90
5011;DHT22;2524;54.364;10.072;2023-01-15T10:11:22;6.90;99.90
5011;DHT22;2524;54.364;10.072;2023-01-15T10:14:14;6.80;99.90
5011;DHT22;2524;54.364;10.072;2023-01-15T10:16:44;6.80;99.90
5011;DHT22;2524;54.364;10.072;2023-01-15T10:19:10;6.90;99.90
5011;DHT22;2524;54.364;10.072;2023-01-15T10:22:08;6.80;99.90
5011;DHT22;2524;54.364;10.072;2023-01-15T10:24:38;6.80;99.90
5011;DHT22;2524;54.364;10.072;2023-01-15T10:27:22;6.70;99.90
5011;DHT22;2524;54.364;10.072;2023-01-15T10:29:53;6.80;99.90
5011;DHT22;2524;54.364;10.072;2023-01-15T10:32:38;6.80;99.90
5011;DHT22;2524;54.364;10.072;2023-01-15T10:35:22;6.80;99.90
5011;DHT22;2524;54.364;10.072;2023-01-15T10:46:13;6.80;99.90
5011;DHT22;2524;54.364;10.072;2023-01-15T10:48:54;6.90;99.90
5011;DHT22;2524;54.364;10.072;2023-01-15T11:01:42;7.00;99.90
5011;DHT22;2524;54.364;10.072;2023-01-15T11:04:09;6.90;99.90
5011;DHT22;2524;54.364;10.072;2023-01-15T11:06:37;6.90;99.90
5011;DHT22;2524;54.364;10.072;2023-01-15T11:09:03;7.00;99.90
5011;DHT22;2524;54.364;10.072;2023-01-15T11:11:49;6.90;99.90
5011;DHT22;2524;54.364;10.072;2023-01-15T11:14:35;6.90;99.90
5011;DHT22;2524;54.364;10.072;2023-01-15T11:17:22;7.00;99.90
5011;DHT22;2524;54.364;10.072;2023-01-15T11:20:25;6.90;99.90
5011;DHT22;2524;54.364;10.072;2023-01-15T11:22:54;6.90;99.90
5011;DHT22;2524;54.364;10.072;2023-01-15T11:25:30;6.90;99.90
5011;DHT22;2524;54.364;10.072;2023-01-15T11:28:03;6.90;99.90
5011;DHT22;2524;54.364;10.072;2023-01-15T11:30:35;6.90;99.90
5011;DHT22;2524;54.364;10.072;2023-01-15T11:33:15;6.90;99.90
5011;DHT22;2524;54.364;10.072;2023-01-15T11:35:52;7.00;99.90
5011;DHT22;2524;54.364;10.072;2023-01-15T11:38:29;6.80;99.90
5011;DHT22;2524;54.364;10.072;2023-01-15T11:41:00;6.70;99.90
5011;DHT22;2524;54.364;10.072;2023-01-15T11:43:29;6.60;99.90
5011;DHT22;2524;54.364;10.072;2023-01-15T11:46:30;6.60;99.90
5011;DHT22;2524;54.364;10.072;2023-01-15T11:49:17;6.60;99.90
5011;DHT22;2524;54.364;10.072;2023-01-15T11:52:26;6.60;99.90
5011;DHT22;2524;54.364;10.072;2023-01-15T11:54:52;6.70;99.90
5011;DHT22;2524;54.364;10.072;2023-01-15T11:57:30;6.80;99.90
5011;DHT22;2524;54.364;10.072;2023-01-15T11:59:57;6.70;99.90
5011;DHT22;2524;54.364;10.072;2023-01-15T12:02:37;6.80;99.90
5011;DHT22;2524;54.364;10.072;2023-01-15T12:05:24;6.80;99.90
5011;DHT22;2524;54.364;10.072;2023-01-15T12:07:54;6.90;99.90
5011;DHT22;2524;54.364;10.072;2023-01-15T12:37:19;6.80;99.90
5011;DHT22;2524;54.364;10.072;2023-01-15T12:40:37;6.70;99.90
5011;DHT22;2524;54.364;10.072;2023-01-15T12:43:26;6.80;99.90
5011;DHT22;2524;54.364;10.072;2023-01-15T12:46:18;6.70;99.90
5011;DHT22;2524;54.364;10.072;2023-01-15T12:54:14;6.80;99.90
5011;DHT22;2524;54.364;10.072;2023-01-15T12:56:59;6.80;99.90
5011;DHT22;2524;54.364;10.072;2023-01-15T12:59:39;6.80;99.90
5011;DHT22;2524;54.364;10.072;2023-01-15T13:05:17;6.80;99.90
5011;DHT22;2524;54.364;10.072;2023-01-15T13:08:18;6.80;99.90
5011;DHT22;2524;54.364;10.072;2023-01-15T13:10:48;6.90;99.90
5011;DHT22;2524;54.364;10.072;2023-01-15T13:13:19;6.90;99.90
5011;DHT22;2524;54.364;10.072;2023-01-15T13:21:28;6.90;99.90
5011;DHT22;2524;54.364;10.072;2023-01-15T13:27:15;6.90;99.90
5011;DHT22;2524;54.364;10.072;2023-01-15T13:30:06;6.90;99.90
5011;DHT22;2524;54.364;10.072;2023-01-15T13:32:41;6.90;99.90
5011;DHT22;2524;54.364;10.072;2023-01-15T13:37:53;6.90;99.90
5011;DHT22;2524;54.364;10.072;2023-01-15T13:40:33;6.80;99.90
5011;DHT22;2524;54.364;10.072;2023-01-15T13:43:01;6.80;99.90
5011;DHT22;2524;54.364;10.072;2023-01-15T13:45:41;6.80;99.90
5011;DHT22;2524;54.364;10.072;2023-01-15T13:48:11;6.80;99.90
5011;DHT22;2524;54.364;10.072;2023-01-15T13:50:58;6.70;99.90
5011;DHT22;2524;54.364;10.072;2023-01-15T13:55:58;6.60;99.90
5011;DHT22;2524;54.364;10.072;2023-01-15T13:58:29;6.60;99.90
5011;DHT22;2524;54.364;10.072;2023-01-15T14:04:03;6.50;99.90
5011;DHT22;2524;54.364;10.072;2023-01-15T14:06:39;6.50;99.90
5011;DHT22;2524;54.364;10.072;2023-01-15T14:09:29;6.40;99.90
5011;DHT22;2524;54.364;10.072;2023-01-15T14:22:42;6.10;99.90
5011;DHT22;2524;54.364;10.072;2023-01-15T14:25:22;6.10;99.90
5011;DHT22;2524;54.364;10.072;2023-01-15T14:35:54;5.90;99.90
5011;DHT22;2524;54.364;10.072;2023-01-15T14:38:23;5.90;99.90
5011;DHT22;2524;54.364;10.072;2023-01-15T14:40:57;5.80;99.90
5011;DHT22;2524;54.364;10.072;2023-01-15T14:43:28;5.80;99.90
5011;DHT22;2524;54.364;10.072;2023-01-15T14:45:54;5.90;99.90
5011;DHT22;2524;54.364;10.072;2023-01-15T14:50:52;5.90;99.90
5011;DHT22;2524;54.364;10.072;2023-01-15T15:01:43;5.90;99.90
5011;DHT22;2524;54.364;10.072;2023-01-15T15:04:20;5.90;99.90
5011;DHT22;2524;54.364;10.072;2023-01-15T15:06:50;5.90;99.90
5011;DHT22;2524;54.364;10.072;2023-01-15T15:09:38;6.00;99.90
5011;DHT22;2524;54.364;10.072;2023-01-15T15:15:12;5.90;99.90
5011;DHT22;2524;54.364;10.072;2023-01-15T15:18:14;5.90;99.90
5011;DHT22;2524;54.364;10.072;2023-01-15T15:23:37;5.90;99.90
5011;DHT22;2524;54.364;10.072;2023-01-15T15:26:31;5.90;99.90
5011;DHT22;2524;54.364;10.072;2023-01-15T15:29:06;5.90;99.90
5011;DHT22;2524;54.364;10.072;2023-01-15T15:34:17;5.90;99.90
5011;DHT22;2524;54.364;10.072;2023-01-15T15:36:45;5.90;99.90
5011;DHT22;2524;54.364;10.072;2023-01-15T15:42:24;5.90;99.90
5011;DHT22;2524;54.364;10.072;2023-01-15T15:45:23;5.90;99.90
5011;DHT22;2524;54.364;10.072;2023-01-15T15:48:19;5.90;99.90
5011;DHT22;2524;54.364;10.072;2023-01-15T15:51:04;5.80;99.90
5011;DHT22;2524;54.364;10.072;2023-01-15T15:53:30;5.80;99.90
5011;DHT22;2524;54.364;10.072;2023-01-15T15:55:57;5.80;99.90
5011;DHT22;2524;54.364;10.072;2023-01-15T15:58:35;5.80;99.90
5011;DHT22;2524;54.364;10.072;2023-01-15T16:01:01;5.80;99.90
5011;DHT22;2524;54.364;10.072;2023-01-15T16:03:30;5.80;99.90
5011;DHT22;2524;54.364;10.072;2023-01-15T16:06:01;5.80;99.90
5011;DHT22;2524;54.364;10.072;2023-01-15T16:08:29;5.80;99.90
5011;DHT22;2524;54.364;10.072;2023-01-15T16:11:06;5.80;99.90
5011;DHT22;2524;54.364;10.072;2023-01-15T16:13:46;5.80;99.90
5011;DHT22;2524;54.364;10.072;2023-01-15T16:16:14;5.80;99.90
5011;DHT22;2524;54.364;10.072;2023-01-15T16:18:45;5.80;99.90
5011;DHT22;2524;54.364;10.072;2023-01-15T16:21:21;5.90;99.90
5011;DHT22;2524;54.364;10.072;2023-01-15T16:23:59;5.90;99.90
5011;DHT22;2524;54.364;10.072;2023-01-15T16:26:33;5.90;99.90
5011;DHT22;2524;54.364;10.072;2023-01-15T16:29:05;5.90;99.90
5011;DHT22;2524;54.364;10.072;2023-01-15T16:31:36;5.90;99.90
5011;DHT22;2524;54.364;10.072;2023-01-15T16:34:03;5.90;99.90
5011;DHT22;2524;54.364;10.072;2023-01-15T16:36:38;5.90;99.90
5011;DHT22;2524;54.364;10.072;2023-01-15T16:39:04;5.90;99.90
5011;DHT22;2524;54.364;10.072;2023-01-15T16:41:38;5.90;99.90
5011;DHT22;2524;54.364;10.072;2023-01-15T16:44:40;5.90;99.90
5011;DHT22;2524;54.364;10.072;2023-01-15T16:47:24;5.90;99.90
5011;DHT22;2524;54.364;10.072;2023-01-15T16:49:50;5.90;99.90
5011;DHT22;2524;54.364;10.072;2023-01-15T16:52:55;5.90;99.90
5011;DHT22;2524;54.364;10.072;2023-01-15T16:55:36;6.00;99.90
5011;DHT22;2524;54.364;10.072;2023-01-15T17:00:41;6.00;99.90
5011;DHT22;2524;54.364;10.072;2023-01-15T17:03:22;5.90;99.90
5011;DHT22;2524;54.364;10.072;2023-01-15T17:06:00;5.90;99.90
5011;DHT22;2524;54.364;10.072;2023-01-15T17:08:35;5.90;99.90
5011;DHT22;2524;54.364;10.072;2023-01-15T17:11:05;5.90;99.90
5011;DHT22;2524;54.364;10.072;2023-01-15T17:13:36;5.90;99.90
5011;DHT22;2524;54.364;10.072;2023-01-15T17:16:17;5.90;99.90
5011;DHT22;2524;54.364;10.072;2023-01-15T17:18:43;5.90;99.90
5011;DHT22;2524;54.364;10.072;2023-01-15T17:21:21;5.90;99.90
5011;DHT22;2524;54.364;10.072;2023-01-15T17:23:52;6.00;99.90
5011;DHT22;2524;54.364;10.072;2023-01-15T17:26:25;6.00;99.90
5011;DHT22;2524;54.364;10.072;2023-01-15T17:28:51;6.00;99.90
5011;DHT22;2524;54.364;10.072;2023-01-15T17:31:22;6.10;99.90
5011;DHT22;2524;54.364;10.072;2023-01-15T17:33:48;6.10;99.90
5011;DHT22;2524;54.364;10.072;2023-01-15T17:36:16;6.10;99.90
5011;DHT22;2524;54.364;10.072;2023-01-15T17:38:42;6.10;99.90
5011;DHT22;2524;54.364;10.072;2023-01-15T17:41:14;6.10;99.90
5011;DHT22;2524;54.364;10.072;2023-01-15T17:43:40;6.20;99.90
5011;DHT22;2524;54.364;10.072;2023-01-15T17:46:06;6.20;99.90
5011;DHT22;2524;54.364;10.072;2023-01-15T17:48:32;6.20;99.90
5011;DHT22;2524;54.364;10.072;2023-01-15T17:50:59;6.20;99.90
5011;DHT22;2524;54.364;10.072;2023-01-15T17:53:26;6.20;99.90
5011;DHT22;2524;54.364;10.072;2023-01-15T17:55:52;6.20;99.90
5011;DHT22;2524;54.364;10.072;2023-01-15T17:58:36;6.20;99.90
5011;DHT22;2524;54.364;10.072;2023-01-15T18:01:22;6.10;99.90
5011;DHT22;2524;54.364;10.072;2023-01-15T18:07:13;6.10;99.90
5011;DHT22;2524;54.364;10.072;2023-01-15T18:09:39;6.10;99.90
5011;DHT22;2524;54.364;10.072;2023-01-15T18:12:05;6.10;99.90
5011;DHT22;2524;54.364;10.072;2023-01-15T18:14:34;6.10;99.90
5011;DHT22;2524;54.364;10.072;2023-01-15T18:17:01;6.10;99.90
5011;DHT22;2524;54.364;10.072;2023-01-15T18:19:27;6.10;99.90
5011;DHT22;2524;54.364;10.072;2023-01-15T18:21:52;6.10;99.90
5011;DHT22;2524;54.364;10.072;2023-01-15T18:24:18;6.10;99.90
5011;DHT22;2524;54.364;10.072;2023-01-15T18:26:47;6.10;99.90
5011;DHT22;2524;54.364;10.072;2023-01-15T18:29:12;6.10;99.90
5011;DHT22;2524;54.364;10.072;2023-01-15T18:31:39;6.10;99.90
5011;DHT22;2524;54.364;10.072;2023-01-15T18:34:05;6.10;99.90
5011;DHT22;2524;54.364;10.072;2023-01-15T18:36:31;6.10;99.90
5011;DHT22;2524;54.364;10.072;2023-01-15T18:38:56;6.10;99.90
5011;DHT22;2524;54.364;10.072;2023-01-15T18:41:27;6.10;99.90
5011;DHT22;2524;54.364;10.072;2023-01-15T18:44:15;6.10;99.90
5011;DHT22;2524;54.364;10.072;2023-01-15T18:47:02;6.10;99.90
5011;DHT22;2524;54.364;10.072;2023-01-15T18:49:31;6.00;99.90
5011;DHT22;2524;54.364;10.072;2023-01-15T18:51:57;6.00;99.90
5011;DHT22;2524;54.364;10.072;2023-01-15T18:54:40;6.00;99.90